Time;durP1;ratioP1;P1;durP2;ratioP2;P2;SDS_P1;SDS_P2;PMS_P1;PMS_P2;Temp;Humidity;BMP_temperature;BMP_pressure;BME280_temperature;BME280_humidity;BME280_pressure;Samples;Min_cycle;Max_cycle;Signal;HPM_P1;HPM_P2
2024/02/10 00:00:19;;;;;;;7.63;3.78;;;;;;;9.04;89.91;97761.34;3144046;23;20075;-79
2024/02/10 00:01:34;;;;;;;3.75;2.88;;;;;;;9.04;89.92;97759.59;3144183;22;20085;-80
2024/02/10 00:02:48;;;;;;;3.13;2.53;;;;;;;9.06;90.07;97759.50;3144230;22;20043;-80
2024/02/10 00:04:03;;;;;;;5.43;3.40;;;;;;;9.06;90.06;97757.75;3149975;23;20020;-80
2024/02/10 00:05:17;;;;;;;5.25;3.88;;;;;;;9.07;90.04;97759.44;3145285;23;20034;-80
2024/02/10 00:06:32;;;;;;;5.53;3.20;;;;;;;9.08;89.76;97757.66;3144194;22;20039;-80
2024/02/10 00:07:45;;;;;;;4.10;2.92;;;;;;;9.07;89.89;97751.63;3144879;23;20027;-79
2024/02/10 00:09:00;;;;;;;4.45;3.10;;;;;;;9.07;89.91;97751.63;3144733;23;20507;-79
2024/02/10 00:10:14;;;;;;;5.47;2.92;;;;;;;9.07;89.92;97746.44;3144047;22;20158;-79
2024/02/10 00:11:31;;;;;;;3.58;2.85;;;;;;;9.09;89.97;97743.75;3144056;23;20028;-80
2024/02/10 00:12:45;;;;;;;4.07;3.00;;;;;;;9.09;90.02;97748.97;3145129;23;20081;-79
2024/02/10 00:13:59;;;;;;;8.02;3.03;;;;;;;9.09;89.95;97749.81;3144019;22;20490;-79
2024/02/10 00:15:14;;;;;;;3.65;2.88;;;;;;;9.10;89.98;97748.88;3144637;23;20020;-80
2024/02/10 00:16:29;;;;;;;4.03;3.28;;;;;;;9.11;89.99;97747.09;3144199;23;20020;-79
2024/02/10 00:17:43;;;;;;;4.55;3.30;;;;;;;9.11;90.09;97744.50;3143848;22;20021;-80
2024/02/10 00:18:57;;;;;;;4.65;3.10;;;;;;;9.11;90.22;97740.16;3145064;23;20016;-80
2024/02/10 00:20:15;;;;;;;7.00;4.38;;;;;;;9.12;89.90;97743.59;3143328;23;20658;-79
2024/02/10 00:21:30;;;;;;;5.22;3.67;;;;;;;9.12;89.99;97743.59;3144034;23;20475;-79
2024/02/10 00:22:46;;;;;;;5.32;3.03;;;;;;;9.11;90.13;97736.69;3144200;22;20024;-79
2024/02/10 00:24:00;;;;;;;5.82;3.67;;;;;;;9.10;89.94;97741.06;3144707;23;20052;-80
2024/02/10 00:25:15;;;;;;;7.22;3.22;;;;;;;9.10;90.05;97733.25;3144218;23;20031;-80
2024/02/10 00:26:28;;;;;;;4.32;3.15;;;;;;;9.10;90.01;97741.06;3145669;22;20020;-80
2024/02/10 00:27:46;;;;;;;5.78;3.20;;;;;;;9.13;90.02;97737.47;3144899;22;20024;-80
2024/02/10 00:29:01;;;;;;;4.57;3.88;;;;;;;9.12;89.96;97731.44;3144697;22;20076;-79
2024/02/10 00:30:16;;;;;;;9.23;3.80;;;;;;;9.13;89.97;97740.91;3144204;22;20099;-79
2024/02/10 00:31:30;;;;;;;8.07;3.25;;;;;;;9.13;89.92;97724.47;3144222;23;20074;-80
2024/02/10 00:32:44;;;;;;;4.40;2.92;;;;;;;9.13;89.97;97727.91;3144876;22;20024;-79
2024/02/10 00:33:58;;;;;;;4.50;3.10;;;;;;;9.12;90.10;97726.22;3144073;22;20443;-79
2024/02/10 00:35:12;;;;;;;5.35;2.92;;;;;;;9.13;89.97;97724.47;3144633;23;20076;-79
2024/02/10 00:36:26;;;;;;;6.00;3.42;;;;;;;9.12;90.09;97725.41;3144491;23;20455;-79
2024/02/10 00:37:40;;;;;;;8.35;4.05;;;;;;;9.12;90.11;97726.22;3144505;23;20070;-80
2024/02/10 00:38:53;;;;;;;8.88;4.03;;;;;;;9.11;89.95;97721.09;3158880;22;20018;-79
2024/02/10 00:40:09;;;;;;;8.07;4.15;;;;;;;9.10;89.95;97714.22;3159658;22;20094;-80
2024/02/10 00:41:23;;;;;;;3.92;3.40;;;;;;;9.09;90.02;97715.16;3159669;22;20023;-79
2024/02/10 00:42:38;;;;;;;3.92;3.38;;;;;;;9.09;89.87;97712.53;3157464;22;20026;-80
2024/02/10 00:43:51;;;;;;;6.13;3.17;;;;;;;9.08;90.02;97722.09;3158438;22;20031;-80
2024/02/10 00:45:09;;;;;;;5.05;4.03;;;;;;;9.08;89.83;97719.47;3160218;22;20047;-80
2024/02/10 00:46:22;;;;;;;6.47;3.70;;;;;;;9.07;89.84;97714.38;3159439;22;20022;-80
2024/02/10 00:47:37;;;;;;;5.60;4.18;;;;;;;9.06;89.93;97713.53;3160178;22;20039;-80
2024/02/10 00:48:54;;;;;;;4.97;3.33;;;;;;;9.06;90.07;97708.34;3157909;22;20356;-79
2024/02/10 00:50:09;;;;;;;6.03;3.97;;;;;;;9.07;90.07;97703.97;3158757;22;20027;-79
2024/02/10 00:51:23;;;;;;;8.15;3.75;;;;;;;9.07;90.10;97707.41;3164881;22;20020;-81
2024/02/10 00:52:37;;;;;;;4.40;3.85;;;;;;;9.08;90.01;97711.69;3165307;22;20047;-79
2024/02/10 00:53:53;;;;;;;8.77;3.53;;;;;;;9.08;89.92;97711.69;3157784;22;20030;-79
2024/02/10 00:55:07;;;;;;;5.22;4.43;;;;;;;9.08;89.94;97706.47;3159278;22;20054;-80
2024/02/10 00:56:21;;;;;;;5.90;3.50;;;;;;;9.08;89.98;97709.06;3165120;22;20020;-79
2024/02/10 00:57:35;;;;;;;4.45;3.60;;;;;;;9.09;90.09;97715.16;3159753;22;20043;-80
2024/02/10 00:58:50;;;;;;;4.15;3.65;;;;;;;9.07;90.09;97704.81;3159339;22;20016;-79
2024/02/10 01:00:07;;;;;;;4.93;4.28;;;;;;;9.07;89.96;97711.78;3160467;22;20020;-80
2024/02/10 01:01:21;;;;;;;5.20;3.45;;;;;;;9.07;90.21;97715.22;3159999;22;20024;-79
2024/02/10 01:02:36;;;;;;;6.30;2.92;;;;;;;9.07;90.15;97715.22;3158812;22;20027;-80
2024/02/10 01:03:49;;;;;;;4.18;2.95;;;;;;;9.07;90.02;97711.78;3159746;22;20336;-79
2024/02/10 01:05:05;;;;;;;3.47;3.03;;;;;;;9.08;90.10;97716.03;3165366;22;20022;-79
2024/02/10 01:06:20;;;;;;;5.93;2.95;;;;;;;9.07;90.00;97712.59;3158327;22;20019;-79
2024/02/10 01:07:34;;;;;;;5.72;2.55;;;;;;;9.08;90.18;97709.06;3159230;22;20382;-79
2024/02/10 01:08:50;;;;;;;4.65;3.05;;;;;;;9.10;90.03;97709.84;3159669;22;20019;-79
2024/02/10 01:10:06;;;;;;;5.80;3.15;;;;;;;9.10;90.04;97707.25;3158708;22;20098;-80
2024/02/10 01:11:20;;;;;;;4.43;3.13;;;;;;;9.11;90.26;97708.94;3159932;22;20711;-80
2024/02/10 01:12:34;;;;;;;4.68;3.75;;;;;;;9.12;90.06;97704.56;3159652;22;20019;-79
2024/02/10 01:13:49;;;;;;;7.03;3.47;;;;;;;9.12;90.16;97704.56;3159082;22;20034;-80
2024/02/10 01:15:07;;;;;;;5.88;3.70;;;;;;;9.13;90.19;97701.03;3160122;22;20020;-80
2024/02/10 01:16:23;;;;;;;5.13;3.53;;;;;;;9.13;90.15;97694.06;3159501;22;20423;-79
2024/02/10 01:17:37;;;;;;;4.88;3.80;;;;;;;9.12;90.12;97688.97;3160421;22;20074;-80
2024/02/10 01:18:51;;;;;;;5.95;4.05;;;;;;;9.13;90.09;97690.63;3159688;22;20122;-80
2024/02/10 01:20:06;;;;;;;6.20;4.25;;;;;;;9.12;90.18;97689.81;3160014;22;20102;-80
2024/02/10 01:21:20;;;;;;;4.82;3.58;;;;;;;9.14;89.88;97700.16;3159568;22;20023;-79
2024/02/10 01:22:34;;;;;;;5.65;4.10;;;;;;;9.15;90.20;97696.63;3159146;22;20144;-79
2024/02/10 01:23:49;;;;;;;6.57;4.63;;;;;;;9.14;90.03;97695.78;3160313;22;20523;-79
2024/02/10 01:25:07;;;;;;;7.10;4.00;;;;;;;9.14;90.06;97697.53;3160053;22;20379;-80
2024/02/10 01:26:20;;;;;;;5.15;4.38;;;;;;;9.13;90.08;97691.47;3159334;22;20354;-80
2024/02/10 01:27:35;;;;;;;6.07;5.03;;;;;;;9.14;90.04;97692.34;3160293;22;20031;-80
2024/02/10 01:28:48;;;;;;;6.93;4.65;;;;;;;9.15;90.03;97692.25;3159788;22;20031;-80
2024/02/10 01:30:03;;;;;;;8.93;4.65;;;;;;;9.15;89.98;97692.25;3159356;22;20458;-80
2024/02/10 01:31:16;;;;;;;7.75;5.10;;;;;;;9.16;90.01;97698.28;3159361;22;20390;-80
2024/02/10 01:32:33;;;;;;;6.82;4.95;;;;;;;9.16;90.01;97693.09;3160012;22;20098;-82
2024/02/10 01:33:48;;;;;;;5.97;4.65;;;;;;;9.16;90.08;97696.56;3164825;22;20023;-82
2024/02/10 01:35:04;;;;;;;8.13;6.30;;;;;;;9.16;90.00;97690.47;3165671;22;20024;-81
2024/02/10 01:36:18;;;;;;;6.72;4.72;;;;;;;9.14;90.02;97697.53;3160410;22;20031;-81
2024/02/10 01:37:33;;;;;;;7.00;5.40;;;;;;;9.14;90.02;97692.34;3160289;22;20027;-81
2024/02/10 01:38:47;;;;;;;8.43;6.28;;;;;;;9.13;89.98;97688.88;3159713;22;20024;-80
2024/02/10 01:40:01;;;;;;;9.70;5.60;;;;;;;9.12;90.03;97694.16;3160010;22;20027;-81
2024/02/10 01:41:16;;;;;;;9.90;6.00;;;;;;;9.11;89.88;97690.75;3159675;22;20462;-79
2024/02/10 01:42:37;;;;;;;10.45;5.38;;;;;;;9.09;90.00;97687.38;3159268;22;20327;-79
2024/02/10 01:43:51;;;;;;;5.78;5.10;;;;;;;9.07;89.91;97677.94;3164927;22;20023;-81
2024/02/10 01:45:08;;;;;;;9.80;5.95;;;;;;;9.05;89.99;97672.81;3159537;22;20123;-80
2024/02/10 01:46:23;;;;;;;14.80;4.65;;;;;;;9.03;89.56;97679.00;3159736;22;20019;-81
2024/02/10 01:47:38;;;;;;;7.88;5.70;;;;;;;9.01;89.88;97679.09;3159915;22;20022;-80
2024/02/10 01:48:55;;;;;;;12.60;5.80;;;;;;;9.01;89.78;97671.31;3160260;22;20094;-80
2024/02/10 01:50:09;;;;;;;9.38;5.50;;;;;;;9.01;89.78;97670.44;3159577;22;20069;-80
2024/02/10 01:51:24;;;;;;;12.55;6.53;;;;;;;9.01;89.95;97673.91;3159899;22;20047;-80
2024/02/10 01:52:39;;;;;;;8.75;5.72;;;;;;;9.00;89.89;97666.16;3160817;22;20024;-80
2024/02/10 01:53:54;;;;;;;7.82;5.45;;;;;;;8.99;90.00;97665.31;3160475;22;20193;-80
2024/02/10 01:55:09;;;;;;;6.57;4.78;;;;;;;8.98;89.82;97676.63;3160551;22;20028;-80
2024/02/10 01:56:24;;;;;;;6.95;5.80;;;;;;;8.98;90.02;97668.00;3160854;22;20031;-81
2024/02/10 01:57:38;;;;;;;8.73;5.72;;;;;;;8.99;89.86;97669.69;3161728;22;20023;-80
2024/02/10 01:58:57;;;;;;;14.35;5.82;;;;;;;8.99;89.93;97675.72;3160385;22;20462;-80
2024/02/10 02:00:13;;;;;;;11.05;7.78;;;;;;;8.98;89.90;97668.00;3161136;22;20024;-79
2024/02/10 02:01:28;;;;;;;12.32;6.28;;;;;;;8.97;89.95;97667.16;3163107;22;20027;-80
2024/02/10 02:02:43;;;;;;;8.18;5.85;;;;;;;8.98;90.04;97670.59;3163193;22;20024;-79
2024/02/10 02:03:58;;;;;;;14.15;5.82;;;;;;;8.99;89.99;97674.91;3160631;22;20072;-81
2024/02/10 02:05:12;;;;;;;11.95;6.85;;;;;;;8.99;89.91;97669.69;3161271;22;20019;-81
2024/02/10 02:06:30;;;;;;;9.10;5.97;;;;;;;8.99;90.25;97662.72;3161705;22;20102;-82
2024/02/10 02:07:44;;;;;;;8.88;6.32;;;;;;;8.99;90.09;97669.69;3165453;22;20057;-79
2024/02/10 02:09:01;;;;;;;11.18;6.28;;;;;;;8.97;90.04;97661.97;3161476;22;21985;-81
2024/02/10 02:10:14;;;;;;;19.88;9.80;;;;;;;8.95;89.92;97667.22;3160086;22;20388;-81
2024/02/10 02:11:29;;;;;;;8.05;5.22;;;;;;;8.94;89.93;97659.50;3160741;22;20034;-81
2024/02/10 02:12:47;;;;;;;16.55;7.47;;;;;;;8.94;90.00;97660.34;3165955;22;20047;-80
2024/02/10 02:14:02;;;;;;;16.95;5.90;;;;;;;8.92;89.86;97662.19;3163784;22;20073;-80
2024/02/10 02:15:16;;;;;;;9.02;6.20;;;;;;;8.93;89.90;97666.47;3160063;22;20019;-81
2024/02/10 02:16:31;;;;;;;8.07;5.95;;;;;;;8.91;90.21;97657.91;3160672;22;20066;-81
2024/02/10 02:17:47;;;;;;;11.55;5.80;;;;;;;8.92;90.03;97656.13;3160113;22;20050;-80
2024/02/10 02:19:02;;;;;;;11.15;6.10;;;;;;;8.91;89.94;97655.31;3161113;22;20020;-80
2024/02/10 02:20:16;;;;;;;10.73;6.07;;;;;;;8.89;89.92;97661.50;3166001;22;20023;-80
2024/02/10 02:21:32;;;;;;;10.73;6.15;;;;;;;8.88;90.09;97660.66;3160156;22;20024;-80
2024/02/10 02:22:50;;;;;;;10.80;7.07;;;;;;;8.89;90.04;97658.91;3160299;22;20050;-80
2024/02/10 02:24:06;;;;;;;11.13;5.70;;;;;;;8.90;90.03;97660.56;3161223;22;20023;-79
2024/02/10 02:25:20;;;;;;;10.73;6.10;;;;;;;8.92;90.07;97656.13;3160494;22;20167;-79
2024/02/10 02:26:34;;;;;;;11.75;6.40;;;;;;;8.91;90.13;97652.69;3160423;22;20470;-79
2024/02/10 02:27:48;;;;;;;15.45;6.88;;;;;;;8.93;90.03;97652.59;3160559;22;20889;-81
2024/02/10 02:29:03;;;;;;;11.48;6.93;;;;;;;8.94;89.99;97651.72;3166384;22;20055;-79
2024/02/10 02:30:16;;;;;;;13.55;6.53;;;;;;;8.94;90.16;97659.50;3159246;22;20099;-79
2024/02/10 02:31:31;;;;;;;11.85;7.82;;;;;;;8.95;90.23;97653.38;3159426;22;20020;-79
2024/02/10 02:32:44;;;;;;;12.95;6.80;;;;;;;8.95;90.02;97651.63;3160165;22;20023;-80
2024/02/10 02:34:02;;;;;;;12.50;7.03;;;;;;;8.94;90.42;97647.34;3159449;22;20376;-79
2024/02/10 02:35:16;;;;;;;9.38;6.30;;;;;;;8.94;89.99;97654.31;3165511;22;20023;-79
2024/02/10 02:36:31;;;;;;;7.85;6.30;;;;;;;8.93;90.07;97648.28;3165705;22;20446;-80
2024/02/10 02:37:44;;;;;;;13.13;6.82;;;;;;;8.93;90.15;97639.59;3159947;22;20050;-80
2024/02/10 02:39:00;;;;;;;13.20;7.45;;;;;;;8.93;90.05;97642.19;3160805;22;20023;-80
2024/02/10 02:40:16;;;;;;;15.88;8.32;;;;;;;8.90;90.20;97638.00;3161262;22;20451;-80
2024/02/10 02:41:30;;;;;;;14.15;6.35;;;;;;;8.89;89.92;97638.94;3166070;22;20402;-80
2024/02/10 02:42:45;;;;;;;17.75;6.75;;;;;;;8.89;89.97;97635.50;3160416;22;20024;-80
2024/02/10 02:44:00;;;;;;;16.63;7.53;;;;;;;8.88;89.92;97634.66;3160802;22;20094;-81
2024/02/10 02:45:13;;;;;;;10.32;7.32;;;;;;;8.86;89.99;97633.06;3161017;22;20354;-80
2024/02/10 02:46:28;;;;;;;13.27;7.15;;;;;;;8.84;90.00;97625.31;3160148;22;20067;-80
2024/02/10 02:47:41;;;;;;;11.38;6.63;;;;;;;8.80;89.81;97630.75;3161225;22;20354;-81
2024/02/10 02:48:56;;;;;;;15.90;6.72;;;;;;;8.78;89.80;97633.44;3160526;22;20099;-81
2024/02/10 02:50:09;;;;;;;15.80;5.93;;;;;;;8.73;89.79;97625.00;3163196;22;20019;-82
2024/02/10 02:51:24;;;;;;;9.80;5.95;;;;;;;8.69;89.74;97624.31;3160222;22;20051;-80
2024/02/10 02:52:37;;;;;;;13.43;5.55;;;;;;;8.66;89.43;97621.03;3160313;22;20016;-80
2024/02/10 02:53:52;;;;;;;13.20;6.40;;;;;;;8.62;89.58;97620.34;3159934;22;20401;-81
2024/02/10 02:55:08;;;;;;;17.67;6.63;;;;;;;8.60;89.62;97622.19;3160674;22;20042;-81
2024/02/10 02:56:25;;;;;;;10.45;5.65;;;;;;;8.56;89.63;97618.03;3161176;22;20027;-80
2024/02/10 02:57:39;;;;;;;10.55;6.32;;;;;;;8.52;89.40;97621.72;3161046;22;20027;-80
2024/02/10 02:58:55;;;;;;;17.00;6.50;;;;;;;8.48;89.42;97622.78;3159802;22;20070;-80
2024/02/10 03:00:10;;;;;;;11.18;5.35;;;;;;;8.43;89.38;97619.56;3161014;22;20029;-82
2024/02/10 03:01:24;;;;;;;17.50;8.05;;;;;;;8.37;89.50;97619.84;3165917;22;20047;-79
2024/02/10 03:02:41;;;;;;;13.38;6.80;;;;;;;8.31;89.53;97631.34;3159594;22;20489;-80
2024/02/10 03:03:55;;;;;;;15.80;6.05;;;;;;;8.26;89.37;97625.50;3160156;22;20024;-79
2024/02/10 03:05:10;;;;;;;11.85;5.40;;;;;;;8.21;89.35;97617.97;3160738;22;20023;-79
2024/02/10 03:06:25;;;;;;;23.50;6.47;;;;;;;8.16;89.30;97622.53;3159692;22;20336;-80
2024/02/10 03:07:42;;;;;;;14.73;6.30;;;;;;;8.13;89.22;97614.91;3160740;22;20599;-80
2024/02/10 03:08:58;;;;;;;15.88;5.68;;;;;;;8.08;89.18;97619.47;3160168;22;20028;-80
2024/02/10 03:10:14;;;;;;;17.15;7.22;;;;;;;8.04;89.30;97623.09;3159556;22;20016;-80
2024/02/10 03:11:28;;;;;;;12.30;5.78;;;;;;;8.01;89.34;97620.66;3160855;22;20359;-79
2024/02/10 03:12:42;;;;;;;12.02;6.10;;;;;;;7.94;89.30;97617.50;3163709;22;20019;-81
2024/02/10 03:13:59;;;;;;;11.82;5.22;;;;;;;7.92;89.22;97621.06;3160297;22;20414;-81
2024/02/10 03:15:13;;;;;;;12.93;6.03;;;;;;;7.86;89.17;97620.44;3160713;22;20031;-81
2024/02/10 03:16:33;;;;;;;8.50;5.03;;;;;;;7.82;89.16;97618.91;3161141;22;20062;-80
2024/02/10 03:17:49;;;;;;;13.18;6.10;;;;;;;7.79;89.20;97621.63;3160317;22;20473;-80
2024/02/10 03:19:05;;;;;;;12.88;5.13;;;;;;;7.74;89.35;97615.81;3160499;22;20098;-80
2024/02/10 03:20:23;;;;;;;11.40;5.78;;;;;;;7.71;89.01;97620.31;3160787;22;20098;-79
2024/02/10 03:21:37;;;;;;;11.07;5.35;;;;;;;7.67;89.18;97616.16;3160672;22;20130;-80
2024/02/10 03:23:01;;;;;;;9.23;5.55;;;;;;;7.64;89.04;97614.53;3159962;22;20034;-80
2024/02/10 03:24:16;;;;;;;9.52;4.53;;;;;;;7.59;89.22;97613.91;3160689;22;20024;-80
2024/02/10 03:25:31;;;;;;;7.25;4.85;;;;;;;7.55;89.28;97622.75;3160042;22;20024;-79
2024/02/10 03:26:46;;;;;;;9.63;5.07;;;;;;;7.50;89.21;97617.78;3159633;22;20050;-79
2024/02/10 03:28:03;;;;;;;25.45;5.65;;;;;;;7.46;89.09;97617.97;3160757;22;20027;-80
2024/02/10 03:29:19;;;;;;;24.60;5.20;;;;;;;7.42;88.93;97619.88;3160306;22;20020;-80
2024/02/10 03:30:33;;;;;;;9.75;4.80;;;;;;;7.37;89.05;97619.22;3158047;22;20016;-79
2024/02/10 03:31:47;;;;;;;7.68;4.70;;;;;;;7.35;89.22;97616.69;3160493;22;20054;-80
2024/02/10 03:33:01;;;;;;;8.25;4.57;;;;;;;7.31;89.02;97622.94;3160580;22;20023;-79
2024/02/10 03:34:16;;;;;;;11.35;4.55;;;;;;;7.28;89.23;97622.22;3159759;22;20072;-79
2024/02/10 03:35:32;;;;;;;6.97;3.67;;;;;;;7.24;88.95;97629.31;3160434;22;20039;-79
2024/02/10 03:36:48;;;;;;;8.77;4.15;;;;;;;7.20;89.23;97633.78;3160664;22;20573;-80
2024/02/10 03:38:01;;;;;;;22.80;5.20;;;;;;;7.17;88.99;97628.72;3160330;22;20117;-80
2024/02/10 03:39:16;;;;;;;20.90;5.13;;;;;;;7.13;89.23;97624.59;3160459;22;20458;-79
2024/02/10 03:40:31;;;;;;;19.83;4.90;;;;;;;7.10;89.05;97623.84;3159967;22;20051;-80
2024/02/10 03:41:45;;;;;;;7.97;3.72;;;;;;;7.07;89.44;97631.78;3159003;22;20050;-79
2024/02/10 03:42:59;;;;;;;10.10;4.28;;;;;;;7.03;89.15;97617.28;3160471;22;20086;-80
2024/02/10 03:44:13;;;;;;;12.38;4.32;;;;;;;6.99;89.13;97613.94;3165629;22;20522;-81
2024/02/10 03:45:36;;;;;;;13.60;4.53;;;;;;;6.96;89.27;97606.31;3160457;22;20031;-80
2024/02/10 03:46:52;;;;;;;6.60;3.78;;;;;;;6.91;89.10;97603.06;3159644;22;20023;-80
2024/02/10 03:48:07;;;;;;;6.28;4.07;;;;;;;6.87;89.07;97602.38;3160332;22;20024;-80
2024/02/10 03:49:21;;;;;;;6.07;3.63;;;;;;;6.83;89.19;97605.97;3160016;22;20580;-79
2024/02/10 03:50:35;;;;;;;9.88;5.20;;;;;;;6.81;89.27;97610.38;3159537;22;20016;-80
2024/02/10 03:51:50;;;;;;;8.80;4.82;;;;;;;6.80;89.23;97600.94;3161007;22;20075;-81
2024/02/10 03:53:03;;;;;;;9.20;3.70;;;;;;;6.75;89.26;97601.13;3161003;22;20316;-80
2024/02/10 03:54:18;;;;;;;8.90;4.03;;;;;;;6.72;89.20;97603.84;3160181;22;20043;-81
2024/02/10 03:55:33;;;;;;;7.00;3.65;;;;;;;6.69;89.40;97601.38;3165967;22;20020;-80
2024/02/10 03:56:48;;;;;;;9.77;4.18;;;;;;;6.65;89.28;97602.41;3160922;22;20031;-80
2024/02/10 03:58:01;;;;;;;7.78;3.92;;;;;;;6.62;89.07;97602.53;3160143;22;20041;-81
2024/02/10 03:59:16;;;;;;;5.63;4.03;;;;;;;6.59;89.27;97600.09;3160912;22;20095;-81
2024/02/10 04:00:36;;;;;;;7.20;3.30;;;;;;;6.54;89.05;97596.84;3161039;22;20019;-83
2024/02/10 04:01:51;;;;;;;7.03;3.72;;;;;;;6.50;89.19;97596.09;3159710;22;20028;-81
2024/02/10 04:03:05;;;;;;;6.15;3.63;;;;;;;6.46;89.27;97591.97;3160816;22;20023;-80
2024/02/10 04:04:21;;;;;;;8.70;3.58;;;;;;;6.45;89.29;97595.44;3160942;22;20024;-80
2024/02/10 04:05:39;;;;;;;10.65;3.92;;;;;;;6.41;89.50;97588.72;3165582;22;20047;-81
2024/02/10 04:06:53;;;;;;;9.93;3.80;;;;;;;6.38;89.43;97588.88;3160290;22;20023;-81
2024/02/10 04:08:07;;;;;;;6.65;2.92;;;;;;;6.34;89.25;97592.47;3160837;22;20024;-80
2024/02/10 04:09:24;;;;;;;7.63;3.45;;;;;;;6.31;89.04;97596.03;3160764;22;20059;-81
2024/02/10 04:10:40;;;;;;;4.75;3.90;;;;;;;6.29;89.41;97597.00;3160204;22;20020;-80
2024/02/10 04:11:55;;;;;;;11.23;4.53;;;;;;;6.27;89.31;97596.19;3161487;22;20331;-81
2024/02/10 04:13:09;;;;;;;11.07;6.07;;;;;;;6.24;89.30;97591.16;3160782;22;20071;-81
2024/02/10 04:14:23;;;;;;;8.38;3.70;;;;;;;6.22;89.15;97599.00;3162232;22;20050;-81
2024/02/10 04:15:37;;;;;;;7.63;4.20;;;;;;;6.21;89.44;97601.63;3163936;22;20451;-79
2024/02/10 04:16:52;;;;;;;5.18;3.17;;;;;;;6.19;89.41;97604.28;3163549;22;20076;-80
2024/02/10 04:18:06;;;;;;;6.90;3.88;;;;;;;6.17;89.38;97606.13;3159947;22;20462;-80
2024/02/10 04:19:20;;;;;;;10.52;4.20;;;;;;;6.15;89.40;97607.06;3164865;22;20016;-80
2024/02/10 04:20:34;;;;;;;10.77;4.72;;;;;;;6.14;89.55;97610.53;3159858;22;20020;-82
2024/02/10 04:21:51;;;;;;;8.32;4.50;;;;;;;6.11;89.43;97606.34;3158972;22;20026;-79
2024/02/10 04:23:05;;;;;;;5.95;3.75;;;;;;;6.08;89.42;97604.72;3160397;22;20020;-81
2024/02/10 04:24:20;;;;;;;10.60;3.65;;;;;;;6.06;89.53;97606.50;3160861;22;20077;-80
2024/02/10 04:25:33;;;;;;;6.50;3.83;;;;;;;6.05;89.40;97612.59;3160459;22;20057;-81
2024/02/10 04:26:49;;;;;;;6.82;3.95;;;;;;;6.03;89.45;97609.22;3159524;22;20020;-80
2024/02/10 04:28:03;;;;;;;8.02;4.07;;;;;;;6.01;89.34;97605.84;3160179;22;20034;-81
2024/02/10 04:29:19;;;;;;;7.97;3.70;;;;;;;6.01;89.74;97608.44;3160237;22;20019;-81
2024/02/10 04:30:32;;;;;;;5.18;3.72;;;;;;;6.00;89.57;97604.16;3158684;22;20015;-81
2024/02/10 04:31:48;;;;;;;7.55;3.20;;;;;;;6.02;89.60;97609.31;3160009;22;20027;-80
2024/02/10 04:33:02;;;;;;;6.68;4.03;;;;;;;6.01;89.72;97611.03;3160041;22;20434;-81
2024/02/10 04:34:18;;;;;;;8.75;3.83;;;;;;;6.00;89.72;97609.34;3159692;22;20086;-80
2024/02/10 04:35:32;;;;;;;7.50;4.03;;;;;;;5.99;89.63;97605.09;3160343;22;20145;-80
2024/02/10 04:36:47;;;;;;;6.72;3.22;;;;;;;5.99;89.67;97599.03;3160110;22;20103;-80
2024/02/10 04:38:01;;;;;;;11.25;5.07;;;;;;;5.97;89.57;97604.28;3159901;22;20024;-80
2024/02/10 04:39:15;;;;;;;6.88;3.88;;;;;;;5.96;89.62;97601.75;3164583;22;20019;-81
2024/02/10 04:40:30;;;;;;;7.03;4.35;;;;;;;5.94;89.52;97608.72;3159612;22;20047;-80
2024/02/10 04:41:43;;;;;;;7.22;4.00;;;;;;;5.90;89.51;97600.22;3159249;22;20023;-80
2024/02/10 04:42:59;;;;;;;10.38;4.63;;;;;;;5.86;89.38;97609.00;3165466;22;20054;-80
2024/02/10 04:44:12;;;;;;;7.07;3.53;;;;;;;5.81;89.51;97598.00;3160183;22;20035;-80
2024/02/10 04:45:27;;;;;;;8.32;3.65;;;;;;;5.78;89.44;97603.28;3160016;22;20114;-80
2024/02/10 04:46:43;;;;;;;5.18;3.45;;;;;;;5.75;89.53;97608.56;3159111;22;20027;-80
2024/02/10 04:47:56;;;;;;;10.02;4.65;;;;;;;5.73;89.53;97605.19;3160512;22;20071;-80
2024/02/10 04:49:11;;;;;;;6.35;3.35;;;;;;;5.71;89.53;97607.84;3160018;22;20023;-80
2024/02/10 04:50:24;;;;;;;9.07;4.22;;;;;;;5.68;89.39;97603.63;3159361;22;20091;-80
2024/02/10 04:51:43;;;;;;;4.45;3.50;;;;;;;5.66;89.59;97614.94;3160067;22;20024;-80
2024/02/10 04:52:56;;;;;;;8.88;4.35;;;;;;;5.64;89.34;97602.06;3160313;22;20035;-80
2024/02/10 04:54:13;;;;;;;6.03;3.90;;;;;;;5.62;89.52;97603.84;3162779;22;20459;-80
2024/02/10 04:55:27;;;;;;;9.43;3.67;;;;;;;5.62;89.53;97603.00;3160352;22;20024;-80
2024/02/10 04:56:41;;;;;;;6.53;3.58;;;;;;;5.59;89.73;97598.78;3160133;22;20031;-80
2024/02/10 04:57:55;;;;;;;7.22;4.03;;;;;;;5.59;89.63;97603.13;3159435;22;20031;-81
2024/02/10 04:59:12;;;;;;;8.43;3.97;;;;;;;5.58;89.54;97596.28;3159548;22;20112;-80
2024/02/10 05:00:26;;;;;;;7.78;4.07;;;;;;;5.55;89.56;97599.84;3159009;22;20015;-81
2024/02/10 05:01:40;;;;;;;8.85;3.95;;;;;;;5.52;89.72;97591.31;3159988;22;20073;-79
2024/02/10 05:02:53;;;;;;;7.60;3.95;;;;;;;5.49;89.61;97604.38;3159217;22;20023;-80
2024/02/10 05:04:08;;;;;;;8.10;3.63;;;;;;;5.45;89.58;97590.72;3160047;22;20072;-80
2024/02/10 05:05:22;;;;;;;9.63;3.42;;;;;;;5.44;89.60;97589.03;3159298;22;20027;-80
2024/02/10 05:06:37;;;;;;;8.20;4.78;;;;;;;5.40;89.49;97596.06;3158738;22;20022;-80
2024/02/10 05:07:53;;;;;;;9.75;4.55;;;;;;;5.38;89.56;97592.69;3159434;22;20019;-80
2024/02/10 05:09:07;;;;;;;10.82;4.28;;;;;;;5.35;89.45;97594.53;3159872;22;20375;-79
2024/02/10 05:10:21;;;;;;;8.68;3.78;;;;;;;5.32;89.42;97592.03;3158978;22;20122;-78
2024/02/10 05:11:35;;;;;;;7.10;3.72;;;;;;;5.29;89.55;97592.16;3159854;22;20018;-79
2024/02/10 05:12:50;;;;;;;4.57;3.13;;;;;;;5.27;89.17;97596.53;3159208;22;20469;-79
2024/02/10 05:14:04;;;;;;;7.88;3.63;;;;;;;5.23;89.63;97591.50;3159095;22;20050;-79
2024/02/10 05:15:21;;;;;;;8.60;4.13;;;;;;;5.23;89.39;97598.41;3159555;22;20098;-81
2024/02/10 05:16:35;;;;;;;8.10;3.85;;;;;;;5.20;89.51;97595.94;3158614;22;20095;-78
2024/02/10 05:17:50;;;;;;;5.95;3.65;;;;;;;5.20;89.49;97599.34;3161516;22;20019;-78
2024/02/10 05:19:05;;;;;;;5.72;3.88;;;;;;;5.19;89.39;97602.84;3161088;22;20024;-80
2024/02/10 05:20:19;;;;;;;7.80;3.50;;;;;;;5.17;89.72;97599.47;3166114;22;20011;-80
2024/02/10 05:21:37;;;;;;;7.85;3.33;;;;;;;5.14;89.66;97597.00;3160921;22;20019;-80
2024/02/10 05:22:51;;;;;;;10.73;4.60;;;;;;;5.14;89.53;97591.84;3160929;22;20023;-80
2024/02/10 05:24:12;;;;;;;6.85;3.55;;;;;;;5.14;89.60;97596.16;3161311;22;20070;-80
2024/02/10 05:25:27;;;;;;;7.10;3.17;;;;;;;5.11;89.52;97591.94;3165988;22;20031;-79
2024/02/10 05:26:42;;;;;;;7.25;3.55;;;;;;;5.10;89.65;97587.66;3159503;22;20688;-79
2024/02/10 05:28:00;;;;;;;5.72;4.43;;;;;;;5.10;89.66;97592.00;3159944;22;20363;-79
2024/02/10 05:29:17;;;;;;;7.63;3.75;;;;;;;5.09;89.63;97585.16;3159874;22;20530;-79
2024/02/10 05:30:32;;;;;;;5.30;3.45;;;;;;;5.07;89.65;97595.53;3160349;22;20058;-79
2024/02/10 05:31:47;;;;;;;5.65;2.97;;;;;;;5.07;89.93;97587.78;3164799;22;20019;-80
2024/02/10 05:33:01;;;;;;;5.50;3.53;;;;;;;5.08;89.81;97593.78;3160651;22;20078;-80
2024/02/10 05:34:17;;;;;;;6.85;2.88;;;;;;;5.09;89.59;97590.31;3159762;22;20020;-80
2024/02/10 05:35:31;;;;;;;7.20;4.47;;;;;;;5.10;89.83;97585.06;3160257;22;20027;-79
2024/02/10 05:36:47;;;;;;;7.82;4.00;;;;;;;5.14;89.88;97591.00;3160139;22;20031;-79
2024/02/10 05:38:02;;;;;;;5.88;3.40;;;;;;;5.18;89.87;97587.38;3163235;22;20027;-80
2024/02/10 05:39:18;;;;;;;10.93;4.32;;;;;;;5.20;90.04;97586.44;3161263;22;20030;-79
2024/02/10 05:40:31;;;;;;;5.60;3.42;;;;;;;5.22;89.92;97589.81;3165943;22;20055;-79
2024/02/10 05:41:48;;;;;;;7.93;3.83;;;;;;;5.25;89.83;97583.69;3165206;22;20015;-80
2024/02/10 05:43:04;;;;;;;10.65;4.95;;;;;;;5.25;90.15;97583.69;3160463;22;20126;-80
2024/02/10 05:44:19;;;;;;;5.03;3.50;;;;;;;5.28;89.92;97593.06;3160493;22;20047;-79
2024/02/10 05:45:34;;;;;;;9.93;3.92;;;;;;;5.29;89.99;97584.41;3160342;22;20016;-79
2024/02/10 05:46:48;;;;;;;6.55;3.47;;;;;;;5.28;90.01;97587.91;3159523;22;20034;-80
2024/02/10 05:48:02;;;;;;;5.88;3.08;;;;;;;5.29;89.94;97590.41;3165694;22;20023;-79
2024/02/10 05:49:21;;;;;;;6.25;3.63;;;;;;;5.30;89.85;97586.13;3160547;22;20086;-79
2024/02/10 05:50:36;;;;;;;11.02;3.67;;;;;;;5.29;90.21;97581.81;3159515;22;20023;-79
2024/02/10 05:51:51;;;;;;;6.78;2.92;;;;;;;5.29;90.09;97581.81;3160093;22;20030;-80
2024/02/10 05:53:05;;;;;;;6.72;3.67;;;;;;;5.29;90.04;97584.41;3160323;22;20083;-80
2024/02/10 05:54:19;;;;;;;4.93;3.05;;;;;;;5.31;90.05;97590.38;3160499;22;20087;-79
2024/02/10 05:55:32;;;;;;;9.88;3.92;;;;;;;5.32;89.98;97580.00;3160120;22;20015;-78